Watkins, Iowa
Current Conditions -  °F | °C
As of 7:52 AM on Monday 24 Nov 2014 (Local Time) from KCID Reporting Station
Light Snow Light Snow  
Wind Chill: 11°   Ceiling: 1900
Heat Index: 27°   Visibility: 1.7mi
Dew Point: 25°   Wind: 29mph
Humidity: 92%   Direction: 300°WNW
Pressure: 29.35"   Gusts: 37mph
Location:  41.89°N, 91.99°W
Report Text: KCID 241352Z 30025G32KT 1 3/4SM -SN BR SCT014 OVC019 M03/M04 A2935 RMK AO2 PK WND 30033/1307 SNB23 SLP944 P0000 T10281039
Loading
Personal Weather Stations






























Interactive Weather Map New forecast layout! Learn more

10-Day Weather Forecast

Advertisements
Track Severe Weather on mobile